createdAt,value
2018-07-21T00:04:21.344Z,5.90
2018-07-21T00:09:13.898Z,6.47
2018-07-21T00:14:06.485Z,5.70
2018-07-21T00:18:58.984Z,10.37
2018-07-21T00:23:51.571Z,5.43
2018-07-21T00:28:44.045Z,5.67
2018-07-21T00:33:36.602Z,6.27
2018-07-21T00:38:29.215Z,9.60
2018-07-21T00:43:21.773Z,9.10
2018-07-21T00:48:14.304Z,8.17
2018-07-21T00:53:06.896Z,7.00
2018-07-21T00:57:59.468Z,9.77
2018-07-21T01:02:52.065Z,6.60
2018-07-21T01:07:44.622Z,12.17
2018-07-21T01:12:37.439Z,9.40
2018-07-21T01:17:29.984Z,6.83
2018-07-21T01:22:22.630Z,6.67
2018-07-21T01:27:15.255Z,5.47
2018-07-21T01:32:07.840Z,8.37
2018-07-21T01:37:00.365Z,5.73
2018-07-21T01:41:52.974Z,6.50
2018-07-21T01:46:45.510Z,6.63
2018-07-21T01:51:38.101Z,5.60
2018-07-21T01:56:30.714Z,6.87
2018-07-21T02:01:23.209Z,10.83
2018-07-21T02:06:15.942Z,8.23
2018-07-21T02:11:08.482Z,12.43
2018-07-21T02:16:01.010Z,9.67
2018-07-21T02:20:53.566Z,6.20
2018-07-21T02:25:46.142Z,7.03
2018-07-21T02:30:38.704Z,8.17
2018-07-21T02:35:31.332Z,10.83
2018-07-21T02:40:23.925Z,10.10
2018-07-21T02:45:16.470Z,13.20
2018-07-21T02:50:09.022Z,8.67
2018-07-21T02:55:01.605Z,6.33
2018-07-21T02:59:54.158Z,8.90
2018-07-21T03:04:46.681Z,11.33
2018-07-21T03:09:39.230Z,9.40
2018-07-21T03:14:31.821Z,6.87
2018-07-21T03:19:24.370Z,6.20
2018-07-21T03:24:16.930Z,6.37
2018-07-21T03:29:09.523Z,7.97
2018-07-21T03:34:02.075Z,7.93
2018-07-21T03:38:54.651Z,6.77
2018-07-21T03:43:47.164Z,7.40
2018-07-21T03:48:39.729Z,11.80
2018-07-21T03:53:32.353Z,9.37
2018-07-21T03:58:24.894Z,6.33
2018-07-21T04:03:17.451Z,4.80
2018-07-21T04:08:09.981Z,8.73
2018-07-21T04:13:02.538Z,6.50
2018-07-21T04:17:55.107Z,8.60
2018-07-21T04:22:47.703Z,6.23
2018-07-21T04:27:40.251Z,9.07
2018-07-21T04:32:32.885Z,7.93
2018-07-21T04:37:25.459Z,7.40
2018-07-21T04:42:18.018Z,5.97
2018-07-21T04:47:10.996Z,8.57
2018-07-21T04:52:03.558Z,6.83
2018-07-21T04:56:56.142Z,12.07
2018-07-21T05:01:48.840Z,6.33
2018-07-21T05:06:41.428Z,9.63
2018-07-21T05:11:34.063Z,9.17
2018-07-21T05:16:26.679Z,5.73
2018-07-21T05:21:19.315Z,7.53
2018-07-21T05:26:11.893Z,9.37
2018-07-21T05:31:04.429Z,11.43
2018-07-21T05:35:56.970Z,6.87
2018-07-21T05:40:49.861Z,6.27
2018-07-21T05:45:42.422Z,8.93
2018-07-21T05:50:34.950Z,7.13
2018-07-21T05:55:27.518Z,6.53
2018-07-21T06:00:20.063Z,4.73
2018-07-21T06:05:12.653Z,5.60
2018-07-21T06:10:05.193Z,6.03
2018-07-21T06:14:57.756Z,4.97
2018-07-21T06:19:50.363Z,5.83
2018-07-21T06:24:42.986Z,6.33
2018-07-21T06:29:35.537Z,8.13
2018-07-21T06:34:28.071Z,8.47
2018-07-21T06:39:20.732Z,7.90
2018-07-21T06:44:13.272Z,4.97
2018-07-21T06:49:05.773Z,4.03
2018-07-21T06:53:58.296Z,6.33
2018-07-21T06:58:50.969Z,4.30
2018-07-21T07:03:43.506Z,3.40
2018-07-21T07:08:36.050Z,8.67
2018-07-21T07:13:28.565Z,10.00
2018-07-21T07:18:21.147Z,3.63
2018-07-21T07:23:13.698Z,6.63
2018-07-21T07:28:06.250Z,5.63
2018-07-21T07:32:58.779Z,5.70
2018-07-21T07:37:51.417Z,6.50
2018-07-21T07:42:44.012Z,5.50
2018-07-21T07:47:36.594Z,6.07
2018-07-21T07:52:29.271Z,6.93
2018-07-21T07:57:21.911Z,6.93
2018-07-21T08:02:14.586Z,6.67
2018-07-21T08:07:07.264Z,7.20
2018-07-21T08:11:59.824Z,9.10
2018-07-21T08:16:52.438Z,8.13
2018-07-21T08:21:45.196Z,10.00
2018-07-21T08:26:37.762Z,8.63
2018-07-21T08:31:30.305Z,6.47
2018-07-21T08:36:23.072Z,5.43
2018-07-21T08:41:15.639Z,8.03
2018-07-21T08:46:08.145Z,4.27
2018-07-21T08:51:00.727Z,7.33
2018-07-21T08:55:53.431Z,5.80
2018-07-21T09:00:45.886Z,5.50
2018-07-21T09:05:38.445Z,13.43
2018-07-21T09:10:31.062Z,6.17
2018-07-21T09:15:23.721Z,7.70
2018-07-21T09:20:16.348Z,6.40
2018-07-21T09:25:09.007Z,4.23
2018-07-21T09:30:01.574Z,7.00
2018-07-21T09:34:54.180Z,6.00
2018-07-21T09:39:46.690Z,6.33
2018-07-21T09:44:39.254Z,5.07
2018-07-21T09:49:31.916Z,6.33
2018-07-21T09:54:24.630Z,6.87
2018-07-21T09:59:17.287Z,4.93
2018-07-21T10:04:09.810Z,6.77
2018-07-21T10:09:02.493Z,4.90
2018-07-21T10:13:55.134Z,9.27
2018-07-21T10:18:47.726Z,5.63
2018-07-21T10:23:40.361Z,4.83
2018-07-21T10:28:38.853Z,11.00
2018-07-21T10:33:31.425Z,5.97
2018-07-21T10:38:24.046Z,6.40
2018-07-21T10:43:16.570Z,7.57
2018-07-21T10:48:09.290Z,6.80
2018-07-21T10:53:01.810Z,6.07
2018-07-21T10:57:54.433Z,8.30
2018-07-21T11:02:47.020Z,6.27
2018-07-21T11:07:39.544Z,5.67
2018-07-21T11:12:32.167Z,5.47
2018-07-21T11:17:24.767Z,8.70
2018-07-21T11:22:17.361Z,7.17
2018-07-21T11:27:09.898Z,6.17
2018-07-21T11:32:02.530Z,6.80
2018-07-21T11:36:55.074Z,9.27
2018-07-21T11:41:47.586Z,7.10
2018-07-21T11:46:40.135Z,8.87
2018-07-21T11:51:32.729Z,7.80
2018-07-21T11:56:25.314Z,10.03
2018-07-21T12:01:17.880Z,6.47
2018-07-21T12:06:10.504Z,6.67
2018-07-21T12:11:03.038Z,12.70
2018-07-21T12:15:55.539Z,7.70
2018-07-21T12:20:48.164Z,9.50
2018-07-21T12:25:40.716Z,6.57
2018-07-21T12:30:33.322Z,8.23
2018-07-21T12:35:25.829Z,6.87
2018-07-21T12:40:18.326Z,9.80
2018-07-21T12:45:10.915Z,6.17
2018-07-21T12:50:03.524Z,10.40
2018-07-21T12:54:56.098Z,5.73
2018-07-21T12:59:48.676Z,7.13
2018-07-21T13:04:41.271Z,7.97
2018-07-21T13:09:33.880Z,7.10
2018-07-21T13:14:26.470Z,9.90
2018-07-21T13:19:19.042Z,7.30
2018-07-21T13:24:11.784Z,6.90
2018-07-21T13:29:04.399Z,6.40
2018-07-21T13:33:56.947Z,6.70
2018-07-21T13:38:49.514Z,6.20
2018-07-21T13:43:43.080Z,9.77
2018-07-21T13:48:35.743Z,6.70
2018-07-21T13:53:28.288Z,6.63
2018-07-21T13:58:21.055Z,7.07
2018-07-21T14:03:13.627Z,6.90
2018-07-21T14:08:06.186Z,12.07
2018-07-21T14:12:58.759Z,6.40
2018-07-21T14:17:51.323Z,7.67
2018-07-21T14:22:43.987Z,11.17
2018-07-21T14:27:36.654Z,10.83
2018-07-21T14:32:29.190Z,6.90
2018-07-21T14:37:21.778Z,6.93
2018-07-21T14:42:14.350Z,6.63
2018-07-21T14:47:06.930Z,8.40
2018-07-21T14:51:59.556Z,11.17
2018-07-21T14:56:52.148Z,10.90
2018-07-21T15:01:44.866Z,7.17
2018-07-21T15:06:37.367Z,13.00
2018-07-21T15:11:29.911Z,11.77
2018-07-21T15:16:22.501Z,14.07
2018-07-21T15:21:15.102Z,18.60
2018-07-21T15:26:07.712Z,17.17
2018-07-21T15:31:00.590Z,13.03
2018-07-21T15:35:53.133Z,17.83
2018-07-21T15:40:45.703Z,17.00
2018-07-21T15:45:38.367Z,15.83
2018-07-21T15:50:30.934Z,13.13
2018-07-21T15:55:23.506Z,12.10
2018-07-21T16:00:16.075Z,12.60
2018-07-21T16:05:08.694Z,11.97
2018-07-21T16:10:01.333Z,14.47
2018-07-21T16:14:54.030Z,12.57
2018-07-21T16:19:46.685Z,13.30
2018-07-21T16:24:39.266Z,13.50
2018-07-21T16:29:31.864Z,13.53
2018-07-21T16:34:24.456Z,15.63
2018-07-21T16:39:17.025Z,11.37
2018-07-21T16:44:09.853Z,12.73
2018-07-21T16:49:02.426Z,10.37
2018-07-21T16:53:55.023Z,7.70
2018-07-21T16:58:47.693Z,22.40
2018-07-21T17:03:40.274Z,9.13
2018-07-21T17:08:33.140Z,25.17
2018-07-21T17:13:25.716Z,13.57
2018-07-21T17:18:18.409Z,8.20
2018-07-21T17:23:10.958Z,14.13
2018-07-21T17:28:03.715Z,12.73
2018-07-21T17:32:56.235Z,10.43
2018-07-21T17:37:48.759Z,10.30
2018-07-21T17:42:41.421Z,7.40
2018-07-21T17:47:33.942Z,8.13
2018-07-21T17:52:26.526Z,7.90
2018-07-21T17:57:19.222Z,10.23
2018-07-21T18:02:11.790Z,10.40
2018-07-21T18:07:04.472Z,10.03
2018-07-21T18:11:57.142Z,11.17
2018-07-21T18:16:49.972Z,13.17
2018-07-21T18:21:42.618Z,10.80
2018-07-21T18:26:35.293Z,7.87
2018-07-21T18:31:27.939Z,9.73
2018-07-21T18:36:20.687Z,12.03
2018-07-21T18:41:13.251Z,9.90
2018-07-21T18:46:06.062Z,9.13
2018-07-21T18:50:58.608Z,11.10
2018-07-21T18:55:51.145Z,11.53
2018-07-21T19:00:43.792Z,12.03
2018-07-21T19:05:36.320Z,14.40
2018-07-21T19:10:28.854Z,11.83
2018-07-21T19:15:27.083Z,8.40
2018-07-21T19:20:25.409Z,13.20
2018-07-21T19:25:23.777Z,11.47
2018-07-21T19:30:16.370Z,13.47
2018-07-21T19:35:09.055Z,14.30
2018-07-21T19:40:01.770Z,9.67
2018-07-21T19:44:54.351Z,10.63
2018-07-21T19:49:46.895Z,9.60
2018-07-21T19:54:39.418Z,10.10
2018-07-21T19:59:32.106Z,20.93
2018-07-21T20:04:24.830Z,11.07
2018-07-21T20:09:17.433Z,16.97
2018-07-21T20:14:09.981Z,12.20
2018-07-21T20:19:02.611Z,14.23
2018-07-21T20:23:55.439Z,11.13
2018-07-21T20:28:48.035Z,14.37
2018-07-21T20:33:40.586Z,12.80
2018-07-21T20:38:33.344Z,13.80
2018-07-21T20:43:25.971Z,17.00
2018-07-21T20:48:18.563Z,17.60
2018-07-21T20:53:11.135Z,12.80
2018-07-21T20:58:03.798Z,19.27
2018-07-21T21:02:56.351Z,25.17
2018-07-21T21:07:49.022Z,20.43
2018-07-21T21:12:41.691Z,17.13
2018-07-21T21:17:34.241Z,13.10
2018-07-21T21:22:26.851Z,15.80
2018-07-21T21:27:19.454Z,14.57
2018-07-21T21:32:12.166Z,12.60
2018-07-21T21:37:04.766Z,12.97
2018-07-21T21:41:57.491Z,12.40
2018-07-21T21:46:49.989Z,13.83
2018-07-21T21:51:42.811Z,15.50
2018-07-21T21:56:35.423Z,13.00
2018-07-21T22:01:28.259Z,15.80
2018-07-21T22:06:20.803Z,12.80
2018-07-21T22:11:13.368Z,10.00
2018-07-21T22:16:06.098Z,14.43
2018-07-21T22:20:58.731Z,12.40
2018-07-21T22:25:51.294Z,13.23
2018-07-21T22:30:43.958Z,16.00
2018-07-21T22:35:36.550Z,11.93
2018-07-21T22:40:29.110Z,18.07
2018-07-21T22:45:21.634Z,11.67
2018-07-21T22:50:14.279Z,14.10
2018-07-21T22:55:06.825Z,11.27
2018-07-21T22:59:59.519Z,14.77
2018-07-21T23:04:52.097Z,14.27
2018-07-21T23:09:44.686Z,9.97
2018-07-21T23:14:37.258Z,10.50
2018-07-21T23:19:29.838Z,9.60
2018-07-21T23:24:22.553Z,12.77
2018-07-21T23:29:15.095Z,16.80
2018-07-21T23:34:07.671Z,15.60
2018-07-21T23:39:00.238Z,12.40
2018-07-21T23:43:52.820Z,11.00
2018-07-21T23:48:45.362Z,9.30
2018-07-21T23:53:37.950Z,9.17
2018-07-21T23:58:30.494Z,14.47
